Time;durP1;ratioP1;P1;durP2;ratioP2;P2;SDS_P1;SDS_P2;PMS_P1;PMS_P2;Temp;Humidity;BMP_temperature;BMP_pressure;BME280_temperature;BME280_humidity;BME280_pressure;Samples;Min_cycle;Max_cycle;Signal;HPM_P1;HPM_P2
2022/11/06 00:02:20;;;;;;;3.85;3.30;;;9.40;79.50;;;;;;5112739;28;20023;-40
2022/11/06 00:04:45;;;;;;;8.38;3.33;;;9.50;79.50;;;;;;5113820;28;20026;-39
2022/11/06 00:07:11;;;;;;;9.07;3.55;;;9.40;79.60;;;;;;5113919;28;20378;-39
2022/11/06 00:09:36;;;;;;;10.38;3.47;;;9.40;79.40;;;;;;5113822;28;20034;-39
2022/11/06 00:12:02;;;;;;;9.13;3.42;;;9.40;79.60;;;;;;5113995;28;20431;-38
2022/11/06 00:14:28;;;;;;;5.78;3.38;;;9.40;79.50;;;;;;5113432;28;20036;-39
2022/11/06 00:16:53;;;;;;;10.88;3.65;;;9.40;79.60;;;;;;5113794;28;20027;-39
2022/11/06 00:19:19;;;;;;;5.07;3.05;;;9.30;79.70;;;;;;5112558;28;20043;-41
2022/11/06 00:21:45;;;;;;;7.95;3.25;;;9.30;79.80;;;;;;5113763;28;20110;-39
2022/11/06 00:24:12;;;;;;;9.55;3.17;;;9.30;79.90;;;;;;5114023;28;20047;-39
2022/11/06 00:26:38;;;;;;;8.07;3.25;;;9.30;80.00;;;;;;5113562;28;20020;-40
2022/11/06 00:29:05;;;;;;;7.80;3.47;;;9.20;80.20;;;;;;5113936;28;20084;-38
2022/11/06 00:31:35;;;;;;;4.53;3.15;;;9.20;80.30;;;;;;5113658;28;20020;-39
2022/11/06 00:34:02;;;;;;;6.80;3.00;;;9.20;80.50;;;;;;5112395;28;20387;-38
2022/11/06 00:36:29;;;;;;;4.30;3.05;;;9.10;80.70;;;;;;5115076;28;20028;-39
2022/11/06 00:38:56;;;;;;;4.40;2.72;;;9.20;80.30;;;;;;5117645;28;20027;-38
2022/11/06 00:41:22;;;;;;;5.13;3.55;;;9.20;80.20;;;;;;5117699;27;20019;-39
2022/11/06 00:43:51;;;;;;;8.30;3.28;;;9.20;80.30;;;;;;5117565;28;20023;-39
2022/11/06 00:46:17;;;;;;;6.63;3.35;;;9.20;80.20;;;;;;5117623;28;20463;-39
2022/11/06 00:48:43;;;;;;;7.65;2.78;;;9.20;80.30;;;;;;5117635;28;20027;-38
2022/11/06 00:51:14;;;;;;;9.75;3.08;;;9.10;80.60;;;;;;5118165;28;20024;-39
2022/11/06 00:53:40;;;;;;;7.40;3.70;;;9.00;80.90;;;;;;5117841;28;20024;-40
2022/11/06 00:56:08;;;;;;;5.82;3.15;;;9.10;80.90;;;;;;5117503;28;20028;-39
2022/11/06 00:58:34;;;;;;;9.15;4.03;;;9.00;81.10;;;;;;5117851;28;20051;-39
2022/11/06 01:01:06;;;;;;;7.72;3.03;;;9.00;80.90;;;;;;5117935;28;20540;-39
2022/11/06 01:03:32;;;;;;;8.00;2.88;;;9.00;80.90;;;;;;5117734;28;20024;-39
2022/11/06 01:06:16;;;;;;;8.15;3.08;;;9.00;81.00;;;;;;5117517;28;20030;-38
2022/11/06 01:08:43;;;;;;;12.55;4.22;;;9.00;81.00;;;;;;5117763;28;20027;-43
2022/11/06 01:11:12;;;;;;;10.68;3.53;;;9.00;81.00;;;;;;5117498;28;20030;-39
2022/11/06 01:13:38;;;;;;;8.95;3.17;;;8.90;81.20;;;;;;5117072;28;20035;-39
2022/11/06 01:16:05;;;;;;;3.30;2.55;;;8.90;81.20;;;;;;5116852;28;20130;-40
2022/11/06 01:18:31;;;;;;;10.25;3.47;;;8.90;81.30;;;;;;5117051;28;20065;-38
2022/11/06 01:20:57;;;;;;;3.30;2.88;;;8.80;81.50;;;;;;5115638;28;20471;-39
2022/11/06 01:23:23;;;;;;;8.18;2.85;;;8.80;81.70;;;;;;5116924;28;20028;-39
2022/11/06 01:26:03;;;;;;;14.70;3.88;;;8.80;81.80;;;;;;5116053;28;20525;-39
2022/11/06 01:28:29;;;;;;;11.05;3.30;;;8.80;82.00;;;;;;5116916;28;20098;-39
2022/11/06 01:30:55;;;;;;;7.78;2.90;;;8.80;81.70;;;;;;5116996;27;20070;-39
2022/11/06 01:33:21;;;;;;;5.82;2.97;;;8.80;81.60;;;;;;5117027;28;20028;-38
2022/11/06 01:35:49;;;;;;;8.93;3.80;;;8.90;81.50;;;;;;5117163;28;20107;-39
2022/11/06 01:38:15;;;;;;;5.07;2.33;;;8.80;81.60;;;;;;5116722;28;20043;-38
2022/11/06 01:40:46;;;;;;;6.10;3.00;;;8.80;81.70;;;;;;5115228;28;20023;-41
2022/11/06 01:43:19;;;;;;;;;;;8.80;81.80;;;;;;5116650;28;20023;-39
2022/11/06 01:45:48;;;;;;;5.13;2.47;;;8.80;81.80;;;;;;5116898;28;19903;-39
2022/11/06 01:48:15;;;;;;;6.93;2.78;;;8.80;81.60;;;;;;5116016;28;20027;-38
2022/11/06 01:50:45;;;;;;;5.47;2.90;;;8.80;81.60;;;;;;5115909;28;20484;-38
2022/11/06 01:53:12;;;;;;;4.93;3.90;;;8.80;81.80;;;;;;5117044;28;20479;-38
2022/11/06 01:55:43;;;;;;;8.88;3.13;;;8.80;81.80;;;;;;5114986;28;20117;-38
2022/11/06 01:58:13;;;;;;;10.15;3.92;;;8.80;81.90;;;;;;5116683;28;20459;-40
2022/11/06 02:00:39;;;;;;;17.73;5.60;;;8.80;81.80;;;;;;5116126;28;20028;-39
2022/11/06 02:03:05;;;;;;;7.78;3.70;;;8.70;81.70;;;;;;5115536;28;20035;-39
2022/11/06 02:05:31;;;;;;;8.70;3.30;;;8.70;82.00;;;;;;5115973;28;20035;-40
2022/11/06 02:07:59;;;;;;;5.38;3.05;;;8.70;82.10;;;;;;5115871;28;20421;-38
2022/11/06 02:10:25;;;;;;;6.68;2.83;;;8.70;81.80;;;;;;5114696;28;20036;-39
2022/11/06 02:13:00;;;;;;;5.95;2.95;;;8.70;82.10;;;;;;5115845;28;20050;-39
2022/11/06 02:16:01;;;;;;;5.38;3.15;;;8.70;81.80;;;;;;5114382;28;20040;-39
2022/11/06 02:18:51;;;;;;;7.50;2.75;;;8.70;81.70;;;;;;5073227;28;20438;-38
2022/11/06 02:21:54;;;;;;;8.00;2.22;;;8.70;81.70;;;;;;5114136;28;20160;-38
2022/11/06 02:24:41;;;;;;;9.60;2.83;;;8.80;81.90;;;;;;5115613;28;20020;-38
2022/11/06 02:27:10;;;;;;;8.10;2.80;;;8.80;81.30;;;;;;5115886;28;20540;-41
2022/11/06 02:30:26;;;;;;;6.15;2.20;;;8.90;81.10;;;;;;5115403;28;20020;-40
2022/11/06 02:32:56;;;;;;;3.80;2.20;;;8.90;80.70;;;;;;5115526;28;20081;-39
2022/11/06 02:35:34;;;;;;;6.53;2.40;;;9.00;80.50;;;;;;5115773;28;20023;-38
2022/11/06 02:38:12;;;;;;;11.25;3.58;;;9.00;80.60;;;;;;5115535;28;20023;-39
2022/11/06 02:40:43;;;;;;;9.05;3.58;;;8.90;80.70;;;;;;5115321;28;20023;-40
2022/11/06 02:43:09;;;;;;;8.02;2.55;;;8.90;80.90;;;;;;5114215;28;20430;-40
2022/11/06 02:45:46;;;;;;;3.00;2.10;;;8.80;81.10;;;;;;5115656;28;20063;-38
2022/11/06 02:48:16;;;;;;;7.15;3.13;;;8.80;81.10;;;;;;5115456;28;20024;-39
2022/11/06 02:50:45;;;;;;;7.03;2.72;;;8.80;81.30;;;;;;5115595;28;20425;-39
2022/11/06 02:53:13;;;;;;;6.93;2.88;;;8.80;81.30;;;;;;5115216;28;20106;-39
2022/11/06 02:55:53;;;;;;;9.65;3.65;;;8.80;81.40;;;;;;5115314;28;20028;-38
2022/11/06 02:58:40;;;;;;;7.80;2.83;;;8.70;81.60;;;;;;5114709;28;20023;-38
2022/11/06 03:01:14;;;;;;;10.43;3.70;;;8.60;81.60;;;;;;5115570;28;20024;-39
2022/11/06 03:03:46;;;;;;;4.57;2.30;;;8.60;82.00;;;;;;5115129;27;20031;-39
2022/11/06 03:06:26;;;;;;;6.65;3.95;;;8.60;81.80;;;;;;5115199;28;20059;-39
2022/11/06 03:09:07;;;;;;;8.93;2.85;;;8.50;82.10;;;;;;5113756;28;20038;-38
2022/11/06 03:11:37;;;;;;;8.13;2.40;;;8.60;81.90;;;;;;5115601;28;20221;-38
2022/11/06 03:14:12;;;;;;;11.38;2.78;;;8.50;81.90;;;;;;5114947;28;20024;-46
2022/11/06 03:16:56;;;;;;;9.57;2.67;;;8.40;82.00;;;;;;5115111;28;20089;-48
2022/11/06 03:19:54;;;;;;;4.72;2.05;;;8.50;82.10;;;;;;5115036;28;20378;-49
2022/11/06 03:22:28;;;;;;;4.78;1.85;;;8.50;82.10;;;;;;5114823;28;20467;-48
2022/11/06 03:25:02;;;;;;;3.65;1.80;;;8.50;81.90;;;;;;5114941;28;20104;-49
2022/11/06 03:27:41;;;;;;;6.63;2.20;;;8.40;82.10;;;;;;5114582;28;20107;-50
2022/11/06 03:30:12;;;;;;;6.10;2.42;;;8.50;82.10;;;;;;5115002;28;20027;-49
2022/11/06 03:32:42;;;;;;;6.05;2.40;;;8.60;81.70;;;;;;5114727;28;20202;-49
2022/11/06 03:35:25;;;;;;;6.28;2.45;;;8.60;81.70;;;;;;5113196;28;20548;-49
2022/11/06 03:38:13;;;;;;;4.88;2.08;;;8.60;81.40;;;;;;5114521;28;20019;-49
2022/11/06 03:40:45;;;;;;;4.18;2.22;;;8.60;81.50;;;;;;5114517;28;20032;-48
2022/11/06 03:43:15;;;;;;;2.95;1.70;;;8.60;81.40;;;;;;5115100;28;20094;-49
2022/11/06 03:45:42;;;;;;;9.15;1.67;;;8.70;81.30;;;;;;5115305;28;20023;-50
2022/11/06 03:48:18;;;;;;;5.07;1.77;;;8.60;81.30;;;;;;5114206;28;20038;-50
2022/11/06 03:50:55;;;;;;;10.25;2.22;;;8.60;81.50;;;;;;5115301;28;20023;-52
2022/11/06 03:53:25;;;;;;;7.82;2.22;;;8.60;81.40;;;;;;5115251;28;20024;-50
2022/11/06 03:56:25;;;;;;;3.65;1.92;;;8.60;81.50;;;;;;5115343;28;20039;-50
2022/11/06 03:58:54;;;;;;;5.88;2.17;;;8.70;81.30;;;;;;5106207;28;20479;-48
2022/11/06 04:01:27;;;;;;;6.50;2.05;;;8.70;81.30;;;;;;5115728;28;20040;-49
2022/11/06 04:04:15;;;;;;;11.68;4.07;;;8.70;81.30;;;;;;5116485;28;20052;-49
2022/11/06 04:07:01;;;;;;;5.55;2.00;;;8.60;81.60;;;;;;5116795;28;20487;-50
2022/11/06 04:15:09;;;;;;;8.02;1.95;;;8.60;81.60;;;;;;5114816;28;20515;-49
2022/11/06 04:17:36;;;;;;;4.00;2.13;;;8.60;81.70;;;;;;5115476;28;20439;-48
2022/11/06 04:20:06;;;;;;;4.18;2.13;;;8.70;81.80;;;;;;5114512;28;20455;-49
2022/11/06 04:23:01;;;;;;;4.13;1.75;;;8.70;81.60;;;;;;5112983;28;20143;-48
2022/11/06 04:29:22;;;;;;;6.95;2.83;;;8.70;81.60;;;;;;5114092;28;20027;-48
2022/11/06 04:32:07;;;;;;;5.75;1.98;;;8.60;81.70;;;;;;5114043;28;20486;-48
2022/11/06 04:34:47;;;;;;;4.30;2.03;;;8.60;82.00;;;;;;5113910;28;20024;-49
2022/11/06 04:37:26;;;;;;;;;;;8.60;81.80;;;;;;5114166;28;20502;-49
2022/11/06 04:40:26;;;;;;;8.40;1.90;;;8.50;81.90;;;;;;5113720;28;19958;-48
2022/11/06 04:43:04;;;;;;;8.52;2.25;;;8.50;82.30;;;;;;5113795;28;20520;-50
2022/11/06 04:45:40;;;;;;;6.55;2.25;;;8.50;82.40;;;;;;5113825;28;20107;-48
2022/11/06 04:48:07;;;;;;;5.15;3.13;;;8.50;82.30;;;;;;5113855;28;20024;-48
2022/11/06 04:50:38;;;;;;;3.72;2.42;;;8.40;82.40;;;;;;5112226;28;20028;-48
2022/11/06 04:53:08;;;;;;;7.10;2.00;;;8.40;82.70;;;;;;5113568;28;20031;-49
2022/11/06 04:55:51;;;;;;;5.07;2.33;;;8.40;82.50;;;;;;5113609;28;20114;-49
2022/11/06 04:58:16;;;;;;;5.13;1.70;;;8.50;82.70;;;;;;5112445;28;20487;-49
2022/11/06 05:00:45;;;;;;;9.25;2.00;;;8.40;82.70;;;;;;5113399;28;20031;-49
2022/11/06 05:03:11;;;;;;;3.97;1.73;;;8.40;82.90;;;;;;5112166;28;20016;-51
2022/11/06 05:05:37;;;;;;;7.78;2.45;;;8.50;82.60;;;;;;5113731;28;20024;-49
2022/11/06 05:08:03;;;;;;;6.25;2.10;;;8.50;82.50;;;;;;5112133;28;20213;-48
2022/11/06 05:10:29;;;;;;;3.67;1.50;;;8.70;82.30;;;;;;5112126;28;20019;-49
2022/11/06 05:12:54;;;;;;;6.30;2.30;;;8.70;82.10;;;;;;5113272;28;20027;-48
2022/11/06 05:15:20;;;;;;;2.65;1.60;;;8.60;82.10;;;;;;5112939;28;20066;-48
2022/11/06 05:17:46;;;;;;;2.13;1.27;;;8.60;82.30;;;;;;5113274;28;20102;-49
2022/11/06 05:20:12;;;;;;;5.30;2.13;;;8.60;82.30;;;;;;5113137;28;20016;-48
2022/11/06 05:22:59;;;;;;;7.43;2.00;;;8.60;82.40;;;;;;5114728;28;20024;-48
2022/11/06 05:25:33;;;;;;;6.70;1.92;;;8.50;82.50;;;;;;5117154;28;20023;-56
2022/11/06 05:28:00;;;;;;;5.78;1.83;;;8.50;82.70;;;;;;5117367;28;20153;-51
2022/11/06 05:30:26;;;;;;;5.35;1.67;;;8.50;82.50;;;;;;5117039;28;20098;-49
2022/11/06 05:32:52;;;;;;;3.60;1.90;;;8.50;82.60;;;;;;5116845;28;20024;-48
2022/11/06 05:35:19;;;;;;;5.85;1.60;;;8.60;82.50;;;;;;5116575;28;20522;-48
2022/11/06 05:37:45;;;;;;;9.82;1.75;;;8.70;82.50;;;;;;5117579;28;20106;-48
2022/11/06 05:40:11;;;;;;;4.22;1.83;;;8.60;82.50;;;;;;5116663;28;20062;-48
2022/11/06 05:42:38;;;;;;;2.88;1.30;;;8.60;82.30;;;;;;5116476;28;20028;-48
2022/11/06 05:45:04;;;;;;;5.78;1.55;;;8.60;82.40;;;;;;5116644;28;20031;-49
2022/11/06 05:47:30;;;;;;;2.53;1.60;;;8.50;82.50;;;;;;5116670;28;20471;-49
2022/11/06 05:49:56;;;;;;;6.40;1.55;;;8.50;82.90;;;;;;5115469;28;20059;-49
2022/11/06 05:52:21;;;;;;;3.42;1.73;;;8.50;83.00;;;;;;5116830;28;20027;-48
2022/11/06 05:54:48;;;;;;;4.28;1.35;;;8.50;83.00;;;;;;5116791;28;20125;-48
2022/11/06 05:57:14;;;;;;;3.40;1.42;;;8.40;83.00;;;;;;5115199;28;20391;-49
2022/11/06 05:59:39;;;;;;;1.77;1.20;;;8.40;83.20;;;;;;5115854;28;20020;-48
2022/11/06 06:02:09;;;;;;;6.55;1.80;;;8.40;83.30;;;;;;5116610;28;20477;-48
2022/11/06 06:04:34;;;;;;;5.20;1.75;;;8.40;83.40;;;;;;5116666;27;20024;-48
2022/11/06 06:07:00;;;;;;;3.13;1.65;;;8.40;83.30;;;;;;5116409;28;20024;-49
2022/11/06 06:09:25;;;;;;;7.97;1.35;;;8.40;83.60;;;;;;5116998;28;20375;-49
2022/11/06 06:11:52;;;;;;;6.25;1.52;;;8.40;83.40;;;;;;5114916;28;20035;-48
2022/11/06 06:14:20;;;;;;;4.35;1.30;;;8.40;83.70;;;;;;5114585;28;20445;-48
2022/11/06 16:03:25;;;;;;;4.38;1.75;;;11.30;68.30;;;;;;5091705;27;20373;-39
2022/11/06 16:05:54;;;;;;;3.90;1.65;;;11.20;68.90;;;;;;5090982;28;20048;-38
2022/11/06 16:08:23;;;;;;;3.10;1.38;;;11.20;69.80;;;;;;5091317;28;20461;-37
2022/11/06 16:10:50;;;;;;;5.20;1.60;;;11.00;71.40;;;;;;5089997;28;20036;-37
2022/11/06 16:13:19;;;;;;;1.90;1.25;;;11.00;72.30;;;;;;5091165;28;20032;-39
2022/11/06 16:15:49;;;;;;;3.08;1.73;;;10.80;72.90;;;;;;5091220;28;20027;-39
2022/11/06 16:18:15;;;;;;;;;;;10.80;74.20;;;;;;5091624;28;20055;-38
2022/11/06 16:20:47;;;;;;;1.88;1.50;;;10.70;73.70;;;;;;5090485;28;20368;-39
2022/11/06 16:23:17;;;;;;;6.00;1.90;;;10.70;73.80;;;;;;5090295;28;20077;-38
2022/11/06 16:25:42;;;;;;;6.97;1.83;;;10.50;74.70;;;;;;5091130;28;20372;-38
2022/11/06 16:28:17;;;;;;;2.97;1.63;;;10.40;75.50;;;;;;5090304;28;20024;-38
2022/11/06 16:30:44;;;;;;;2.92;1.40;;;10.30;76.50;;;;;;5090678;28;20369;-39
2022/11/06 16:33:21;;;;;;;3.92;1.70;;;10.30;76.90;;;;;;5089102;28;20027;-39
2022/11/06 16:35:49;;;;;;;7.85;2.20;;;10.20;77.00;;;;;;5091219;28;20028;-39
2022/11/06 16:38:15;;;;;;;6.32;1.35;;;10.10;77.90;;;;;;5090561;28;20031;-39
2022/11/06 16:40:43;;;;;;;7.63;2.50;;;10.00;78.20;;;;;;5090294;28;20028;-40
2022/11/06 16:43:14;;;;;;;2.33;1.70;;;9.90;78.20;;;;;;5090214;28;20538;-38
2022/11/06 16:46:05;;;;;;;3.53;2.30;;;9.90;78.10;;;;;;5090399;28;20119;-39
2022/11/06 16:48:40;;;;;;;4.63;1.58;;;9.80;78.10;;;;;;5090605;28;20376;-38
2022/11/06 16:51:31;;;;;;;4.95;3.10;;;9.80;77.60;;;;;;5090443;28;20016;-39
2022/11/06 16:53:59;;;;;;;5.85;2.20;;;10.00;75.70;;;;;;5089076;28;20032;-38
2022/11/06 16:56:28;;;;;;;6.45;2.95;;;10.00;76.30;;;;;;5090471;28;20103;-38
2022/11/06 16:59:15;;;;;;;8.63;3.15;;;10.00;76.20;;;;;;5089889;28;20147;-38
2022/11/06 17:01:45;;;;;;;2.38;1.67;;;10.00;75.90;;;;;;5089616;28;20036;-39
2022/11/06 17:04:25;;;;;;;4.13;2.10;;;10.10;74.80;;;;;;5090087;28;20024;-39
2022/11/06 17:06:51;;;;;;;1.70;1.55;;;10.00;75.80;;;;;;5089703;28;20024;-41
2022/11/06 17:09:43;;;;;;;3.80;1.67;;;9.90;75.30;;;;;;5088646;28;20020;-38
2022/11/06 17:12:09;;;;;;;5.45;3.78;;;9.90;75.50;;;;;;5085874;28;20085;-39
2022/11/06 17:14:35;;;;;;;4.57;2.30;;;9.90;76.10;;;;;;5077126;28;20082;-39
2022/11/06 17:17:02;;;;;;;5.22;3.10;;;9.90;75.10;;;;;;5076248;28;20043;-39
2022/11/06 17:19:28;;;;;;;7.82;2.45;;;9.90;74.70;;;;;;5074809;28;20028;-39
2022/11/06 17:21:55;;;;;;;6.70;3.38;;;9.80;75.10;;;;;;5076086;28;20472;-38
2022/11/06 17:24:20;;;;;;;5.28;3.00;;;9.80;75.20;;;;;;5075742;28;20021;-45
2022/11/06 17:26:48;;;;;;;3.75;2.00;;;9.80;75.00;;;;;;5075859;28;20090;-38
2022/11/06 17:29:14;;;;;;;2.50;2.10;;;9.80;75.40;;;;;;5074813;28;20078;-39
2022/11/06 17:31:40;;;;;;;3.47;2.13;;;9.80;75.00;;;;;;5075703;28;20054;-38
2022/11/06 17:34:06;;;;;;;2.63;1.90;;;9.80;74.60;;;;;;5074309;28;20028;-38
2022/11/06 17:36:33;;;;;;;5.95;1.77;;;9.80;74.20;;;;;;5075749;28;20037;-39
2022/11/06 17:38:59;;;;;;;4.30;1.80;;;9.80;74.00;;;;;;5075794;28;20036;-39
2022/11/06 17:41:31;;;;;;;3.15;1.63;;;9.80;73.40;;;;;;5075978;28;20099;-39
2022/11/06 17:43:59;;;;;;;6.25;2.97;;;9.80;72.50;;;;;;5076065;28;20099;-39
2022/11/06 17:46:26;;;;;;;5.25;3.03;;;9.90;72.80;;;;;;5075604;28;20052;-39
2022/11/06 17:48:53;;;;;;;2.80;2.00;;;9.90;72.40;;;;;;5075735;28;20173;-39
2022/11/06 17:54:03;;;;;;;5.15;2.67;;;9.90;71.70;;;;;;5075410;28;20031;-40
2022/11/06 17:56:29;;;;;;;3.65;1.60;;;9.90;71.80;;;;;;5075413;28;20027;-38
2022/11/06 17:58:55;;;;;;;5.45;2.22;;;9.90;71.60;;;;;;5075192;28;20021;-38
2022/11/06 18:01:21;;;;;;;2.28;1.60;;;9.80;72.10;;;;;;5074985;28;20119;-39
2022/11/06 18:03:46;;;;;;;5.68;1.95;;;9.80;72.30;;;;;;5075524;28;20353;-39
2022/11/06 18:06:13;;;;;;;3.05;2.05;;;9.80;71.90;;;;;;5075122;28;20028;-39
2022/11/06 18:08:39;;;;;;;5.68;2.40;;;9.80;71.20;;;;;;5075447;28;20071;-39
2022/11/06 18:11:06;;;;;;;3.63;1.92;;;9.80;70.90;;;;;;5075230;28;20020;-39
2022/11/06 18:13:33;;;;;;;4.07;2.13;;;9.90;70.50;;;;;;5075415;28;20024;-39
2022/11/06 18:15:58;;;;;;;3.47;1.98;;;9.90;70.40;;;;;;5074108;28;20488;-39
2022/11/06 18:18:24;;;;;;;3.17;1.90;;;9.90;70.30;;;;;;5075023;28;20032;-39
2022/11/06 18:20:50;;;;;;;4.82;1.73;;;9.90;69.60;;;;;;5075673;28;20456;-39
2022/11/06 18:23:16;;;;;;;1.02;0.77;;;9.90;69.80;;;;;;5075085;28;20025;-41
2022/11/06 18:25:42;;;;;;;5.03;2.15;;;10.00;69.30;;;;;;5073984;28;20028;-38
2022/11/06 18:28:08;;;;;;;4.40;1.95;;;10.10;70.00;;;;;;5074809;28;20025;-39
2022/11/06 18:30:35;;;;;;;2.83;1.20;;;10.10;69.30;;;;;;5073648;28;20064;-38
2022/11/06 18:33:01;;;;;;;3.83;2.45;;;10.10;68.60;;;;;;5074884;28;20024;-39
2022/11/06 18:35:27;;;;;;;6.93;1.98;;;10.20;69.00;;;;;;5075243;28;20080;-38
2022/11/06 18:37:52;;;;;;;2.78;1.48;;;10.20;69.50;;;;;;5075397;28;20114;-38
2022/11/06 18:40:18;;;;;;;5.63;2.95;;;10.10;69.20;;;;;;5075204;28;20028;-40
2022/11/06 18:42:43;;;;;;;8.65;1.80;;;10.10;69.70;;;;;;5075157;28;20027;-39
2022/11/06 18:45:09;;;;;;;5.30;2.20;;;10.20;69.30;;;;;;5076198;28;20020;-41
2022/11/06 18:47:35;;;;;;;3.60;2.05;;;10.20;69.80;;;;;;5076201;28;20025;-39
2022/11/06 18:50:02;;;;;;;4.68;2.83;;;10.10;69.50;;;;;;5075905;28;20020;-39
2022/11/06 18:52:28;;;;;;;4.93;2.33;;;10.10;69.70;;;;;;5075389;28;20052;-39
2022/11/06 18:54:54;;;;;;;6.32;2.45;;;10.20;69.30;;;;;;5076499;28;20487;-39
2022/11/06 18:57:19;;;;;;;2.58;2.00;;;10.20;69.50;;;;;;5076150;28;20107;-39
2022/11/06 18:59:45;;;;;;;4.30;2.53;;;10.10;69.80;;;;;;5075045;28;20055;-40
2022/11/06 19:02:10;;;;;;;1.67;1.58;;;10.10;70.40;;;;;;5074953;28;20075;-39
2022/11/06 19:04:36;;;;;;;5.75;3.42;;;10.10;69.60;;;;;;5074767;28;20024;-41
2022/11/06 19:07:02;;;;;;;4.00;2.00;;;10.10;70.20;;;;;;5073184;28;20055;-39
2022/11/06 19:09:28;;;;;;;2.63;2.00;;;10.00;70.20;;;;;;5074162;28;20029;-39
2022/11/06 19:11:53;;;;;;;6.25;2.17;;;10.20;70.00;;;;;;5073610;28;20032;-38
2022/11/06 19:14:19;;;;;;;3.67;2.00;;;10.20;69.60;;;;;;5073895;28;20031;-39
2022/11/06 19:16:44;;;;;;;2.95;1.75;;;10.20;69.40;;;;;;5074000;28;20029;-39
2022/11/06 19:19:10;;;;;;;3.65;1.95;;;10.20;69.50;;;;;;5073839;28;20099;-39
2022/11/06 19:21:36;;;;;;;2.90;1.13;;;10.20;69.50;;;;;;5074011;28;20033;-38
2022/11/06 19:24:03;;;;;;;3.10;1.58;;;10.30;69.50;;;;;;5073932;28;20082;-40
2022/11/06 19:26:28;;;;;;;2.72;2.10;;;10.30;69.20;;;;;;5073673;28;20027;-40
2022/11/06 19:28:56;;;;;;;2.80;2.25;;;10.30;69.30;;;;;;5073507;28;20016;-39
2022/11/06 19:31:27;;;;;;;2.50;2.10;;;10.30;69.60;;;;;;5074418;28;20060;-40
2022/11/06 19:33:57;;;;;;;3.95;2.30;;;10.30;69.40;;;;;;5074116;28;20029;-39
2022/11/06 19:36:23;;;;;;;2.80;1.57;;;10.30;69.90;;;;;;5073401;28;20028;-39
2022/11/06 19:38:49;;;;;;;5.25;2.85;;;10.30;69.70;;;;;;5073316;28;20060;-38
2022/11/06 19:41:15;;;;;;;5.35;2.63;;;10.30;70.10;;;;;;5072234;28;20035;-38
2022/11/06 19:43:40;;;;;;;4.43;2.83;;;10.30;70.20;;;;;;5073999;28;20025;-39
2022/11/06 19:46:07;;;;;;;3.63;2.72;;;10.30;70.20;;;;;;5073843;28;20385;-40
2022/11/06 19:48:33;;;;;;;2.75;1.73;;;10.40;70.40;;;;;;5073385;28;20028;-39
2022/11/06 19:50:59;;;;;;;2.67;2.00;;;10.40;70.00;;;;;;5073291;28;20021;-39
2022/11/06 19:53:25;;;;;;;7.95;2.95;;;10.50;70.30;;;;;;5073547;28;20065;-38
2022/11/06 19:55:51;;;;;;;3.92;2.08;;;10.50;70.10;;;;;;5073407;28;20555;-40
2022/11/06 19:58:19;;;;;;;3.25;2.38;;;10.40;70.70;;;;;;5073398;28;20117;-38
2022/11/06 20:00:46;;;;;;;4.30;2.60;;;10.40;70.60;;;;;;5073688;28;20059;-38
2022/11/06 20:03:12;;;;;;;4.07;2.55;;;10.40;71.20;;;;;;5073152;28;20070;-39
2022/11/06 20:05:39;;;;;;;3.83;2.95;;;10.50;70.70;;;;;;5073890;28;20024;-39
2022/11/06 20:08:05;;;;;;;2.83;1.70;;;10.40;70.70;;;;;;5072427;28;20120;-38
2022/11/06 20:10:31;;;;;;;2.28;1.85;;;10.50;70.70;;;;;;5073818;28;20488;-39
2022/11/06 20:12:57;;;;;;;2.60;1.75;;;10.60;70.40;;;;;;5073595;28;20488;-40
2022/11/06 20:15:23;;;;;;;4.00;2.33;;;10.70;70.60;;;;;;5073170;28;20396;-40
2022/11/06 20:17:49;;;;;;;2.75;1.98;;;10.70;70.60;;;;;;5072866;28;20031;-38
2022/11/06 20:20:14;;;;;;;3.00;2.22;;;10.70;70.80;;;;;;5072182;28;20020;-40
2022/11/06 20:22:40;;;;;;;6.13;2.28;;;10.80;70.60;;;;;;5073565;28;20020;-39
2022/11/06 20:25:10;;;;;;;4.80;2.08;;;10.80;71.00;;;;;;5073470;28;20035;-39
2022/11/06 20:27:36;;;;;;;3.33;2.38;;;10.80;71.00;;;;;;5074148;28;20020;-39
2022/11/06 20:30:03;;;;;;;2.45;1.90;;;10.80;71.30;;;;;;5071876;28;20055;-38
2022/11/06 20:32:29;;;;;;;3.80;2.28;;;10.80;72.80;;;;;;5071970;28;20021;-40
2022/11/06 20:34:55;;;;;;;3.05;1.67;;;10.60;73.40;;;;;;5073123;28;20024;-39
2022/11/06 20:37:20;;;;;;;3.25;1.67;;;10.70;72.80;;;;;;5071814;28;20039;-41
2022/11/06 20:39:46;;;;;;;10.90;2.40;;;10.80;72.30;;;;;;5072965;28;20024;-39
2022/11/06 20:42:12;;;;;;;4.57;1.85;;;10.80;72.20;;;;;;5072762;28;20047;-39
2022/11/06 20:44:37;;;;;;;2.30;1.70;;;10.80;72.50;;;;;;5073122;28;20021;-39
2022/11/06 20:47:03;;;;;;;2.80;1.73;;;10.80;72.20;;;;;;5072883;28;20017;-39
2022/11/06 20:49:28;;;;;;;3.38;1.60;;;10.80;72.60;;;;;;5076207;28;20059;-40
2022/11/06 20:51:54;;;;;;;3.78;1.58;;;10.80;73.20;;;;;;5076862;28;20533;-39
2022/11/06 20:54:20;;;;;;;3.83;2.05;;;10.70;73.70;;;;;;5076511;28;20039;-38
2022/11/06 20:56:47;;;;;;;2.88;1.70;;;10.70;73.90;;;;;;5076609;28;20020;-38
2022/11/06 20:59:13;;;;;;;6.22;2.17;;;10.70;73.80;;;;;;5076719;28;20024;-38
2022/11/06 21:01:39;;;;;;;3.25;2.25;;;10.70;74.00;;;;;;5076319;28;20052;-39
2022/11/06 21:04:05;;;;;;;7.30;2.30;;;10.70;74.10;;;;;;5076374;28;20020;-39
2022/11/06 21:06:31;;;;;;;4.15;2.13;;;10.60;74.30;;;;;;5076535;28;20036;-39
2022/11/06 21:08:57;;;;;;;3.92;2.10;;;10.60;74.40;;;;;;5076591;28;20021;-40
2022/11/06 21:11:26;;;;;;;3.85;1.95;;;10.70;74.10;;;;;;5075236;28;20135;-38
2022/11/06 21:13:53;;;;;;;3.78;2.55;;;10.80;74.20;;;;;;5058800;28;20503;-39
2022/11/06 21:16:23;;;;;;;2.40;1.85;;;10.80;74.10;;;;;;5076286;28;20024;-39
2022/11/06 21:18:50;;;;;;;5.30;2.58;;;10.70;74.40;;;;;;5075335;28;20029;-40
2022/11/06 21:21:20;;;;;;;3.47;2.35;;;10.70;74.50;;;;;;5076101;28;20028;-40
2022/11/06 21:23:47;;;;;;;3.15;1.92;;;10.80;74.40;;;;;;5076631;28;20028;-38
2022/11/06 21:26:24;;;;;;;5.20;2.65;;;10.80;74.70;;;;;;5076162;28;20074;-38
2022/11/06 21:28:50;;;;;;;3.47;2.00;;;10.80;75.00;;;;;;5076566;28;20028;-39
2022/11/06 21:31:25;;;;;;;4.65;1.88;;;10.70;75.10;;;;;;5058277;28;20028;-40
2022/11/06 21:33:53;;;;;;;3.20;2.13;;;10.80;75.10;;;;;;5076144;28;20555;-39
2022/11/06 21:36:21;;;;;;;3.70;2.20;;;10.80;75.20;;;;;;5074683;28;20380;-38
2022/11/06 21:38:47;;;;;;;4.97;2.53;;;10.80;75.50;;;;;;5075806;28;20021;-39
2022/11/06 21:41:18;;;;;;;6.85;2.25;;;10.80;75.80;;;;;;5075523;28;20031;-38
2022/11/06 21:43:43;;;;;;;4.63;2.40;;;10.80;75.80;;;;;;5076111;28;20511;-41
2022/11/06 21:46:11;;;;;;;5.50;1.98;;;10.80;76.00;;;;;;5075750;28;20025;-40
2022/11/06 21:48:38;;;;;;;2.92;1.67;;;10.80;76.00;;;;;;5075536;28;20020;-38
2022/11/06 21:51:05;;;;;;;6.88;2.35;;;10.80;76.20;;;;;;5075298;28;20021;-38
2022/11/06 21:56:17;;;;;;;2.20;1.67;;;10.80;76.70;;;;;;5076390;28;20031;-39
2022/11/06 21:58:43;;;;;;;5.60;2.40;;;10.90;76.70;;;;;;5075485;28;20419;-43
2022/11/06 22:01:08;;;;;;;2.65;1.85;;;11.00;76.90;;;;;;5075201;28;20037;-40
2022/11/06 22:03:34;;;;;;;4.07;2.22;;;10.90;77.00;;;;;;5075733;28;20457;-39
2022/11/06 22:06:07;;;;;;;5.32;2.38;;;10.90;77.40;;;;;;5075218;28;20020;-39
2022/11/06 22:08:38;;;;;;;4.57;2.08;;;11.00;77.50;;;;;;5075567;28;20501;-39
2022/11/06 22:11:11;;;;;;;15.20;4.05;;;11.00;77.60;;;;;;5075361;28;20016;-38
2022/11/06 22:13:36;;;;;;;5.13;2.00;;;11.00;77.80;;;;;;5075402;28;20082;-39
2022/11/06 22:16:02;;;;;;;3.63;1.98;;;11.00;78.00;;;;;;5075571;28;20017;-40
2022/11/06 22:18:28;;;;;;;4.97;1.90;;;11.00;78.00;;;;;;5075281;28;20482;-40
2022/11/06 22:21:06;;;;;;;4.95;1.75;;;11.10;78.10;;;;;;5075368;28;20024;-39
2022/11/06 22:23:33;;;;;;;4.68;1.95;;;11.00;78.30;;;;;;5076327;28;20473;-40
2022/11/06 22:25:59;;;;;;;3.03;1.40;;;11.00;78.50;;;;;;5073763;28;20107;-39
2022/11/06 22:28:24;;;;;;;3.50;2.60;;;11.10;78.50;;;;;;5075042;28;20052;-39
2022/11/06 22:30:50;;;;;;;3.25;2.00;;;11.10;78.40;;;;;;5074935;28;20063;-39
2022/11/06 22:33:16;;;;;;;2.60;1.52;;;11.10;78.60;;;;;;5074767;28;20085;-39
2022/11/06 22:35:42;;;;;;;4.22;1.88;;;11.10;78.80;;;;;;5073374;28;20039;-39
2022/11/06 22:38:09;;;;;;;7.03;2.05;;;11.10;79.00;;;;;;5074709;28;20385;-39
2022/11/06 22:40:35;;;;;;;2.38;1.77;;;11.10;78.90;;;;;;5075103;28;20086;-39
2022/11/06 22:43:01;;;;;;;5.40;2.55;;;11.10;79.10;;;;;;5073694;28;20047;-39
2022/11/06 22:45:27;;;;;;;2.63;1.75;;;11.10;79.30;;;;;;5057321;28;20101;-38
2022/11/06 22:47:53;;;;;;;5.28;1.77;;;11.20;79.20;;;;;;5075661;28;20024;-39
2022/11/06 22:50:19;;;;;;;7.63;2.42;;;11.20;79.40;;;;;;5075100;28;20030;-38
2022/11/06 22:53:02;;;;;;;9.10;2.28;;;11.20;79.50;;;;;;5073423;28;20020;-39
2022/11/06 22:55:29;;;;;;;2.83;1.80;;;11.20;79.80;;;;;;5074829;28;20490;-38
2022/11/06 22:57:55;;;;;;;3.70;2.03;;;11.10;79.90;;;;;;5075029;28;20020;-38
2022/11/06 23:00:22;;;;;;;6.60;2.40;;;11.10;80.20;;;;;;5073385;28;20032;-40
2022/11/06 23:02:48;;;;;;;4.68;2.38;;;11.20;80.20;;;;;;5074110;28;20067;-39
2022/11/06 23:05:15;;;;;;;2.17;1.73;;;11.10;80.30;;;;;;5074272;28;20074;-39
2022/11/06 23:07:40;;;;;;;11.32;3.17;;;11.20;80.10;;;;;;5074526;28;20103;-38